sensor_id;sensor_type;location;lat;lon;timestamp;temperature;humidity
5457;DHT22;2751;49.802;9.944;2023-07-30T00:02:15;20.80;99.90
5457;DHT22;2751;49.802;9.944;2023-07-30T00:04:42;20.80;99.90
5457;DHT22;2751;49.802;9.944;2023-07-30T00:07:09;20.70;99.90
5457;DHT22;2751;49.802;9.944;2023-07-30T00:09:37;20.70;99.90
5457;DHT22;2751;49.802;9.944;2023-07-30T00:12:05;20.70;99.90
5457;DHT22;2751;49.802;9.944;2023-07-30T00:14:32;20.60;99.90
5457;DHT22;2751;49.802;9.944;2023-07-30T00:16:59;20.50;99.90
5457;DHT22;2751;49.802;9.944;2023-07-30T00:19:26;20.40;99.90
5457;DHT22;2751;49.802;9.944;2023-07-30T00:21:53;20.40;99.90
5457;DHT22;2751;49.802;9.944;2023-07-30T00:24:20;20.30;99.90
5457;DHT22;2751;49.802;9.944;2023-07-30T00:26:48;20.20;99.90
5457;DHT22;2751;49.802;9.944;2023-07-30T00:29:15;20.00;99.90
5457;DHT22;2751;49.802;9.944;2023-07-30T00:31:41;19.90;99.90
5457;DHT22;2751;49.802;9.944;2023-07-30T00:34:08;19.80;99.90
5457;DHT22;2751;49.802;9.944;2023-07-30T00:36:35;19.80;99.90
5457;DHT22;2751;49.802;9.944;2023-07-30T00:39:03;19.70;99.90
5457;DHT22;2751;49.802;9.944;2023-07-30T00:41:30;19.70;99.90
5457;DHT22;2751;49.802;9.944;2023-07-30T00:43:58;19.60;99.90
5457;DHT22;2751;49.802;9.944;2023-07-30T00:46:25;19.60;99.90
5457;DHT22;2751;49.802;9.944;2023-07-30T00:48:52;19.60;99.90
5457;DHT22;2751;49.802;9.944;2023-07-30T00:51:19;19.50;99.90
5457;DHT22;2751;49.802;9.944;2023-07-30T00:53:47;19.50;99.90
5457;DHT22;2751;49.802;9.944;2023-07-30T00:56:14;19.60;99.90
5457;DHT22;2751;49.802;9.944;2023-07-30T00:58:42;19.60;99.90
5457;DHT22;2751;49.802;9.944;2023-07-30T01:01:11;19.60;99.90
5457;DHT22;2751;49.802;9.944;2023-07-30T01:03:39;19.60;99.90
5457;DHT22;2751;49.802;9.944;2023-07-30T01:06:06;19.60;99.90
5457;DHT22;2751;49.802;9.944;2023-07-30T01:08:34;19.60;99.90
5457;DHT22;2751;49.802;9.944;2023-07-30T01:11:01;19.50;99.90
5457;DHT22;2751;49.802;9.944;2023-07-30T01:13:29;19.40;99.90
5457;DHT22;2751;49.802;9.944;2023-07-30T01:15:57;19.40;99.90
5457;DHT22;2751;49.802;9.944;2023-07-30T01:18:25;19.40;99.90
5457;DHT22;2751;49.802;9.944;2023-07-30T01:20:57;19.40;99.90
5457;DHT22;2751;49.802;9.944;2023-07-30T01:23:25;19.50;99.90
5457;DHT22;2751;49.802;9.944;2023-07-30T01:25:59;19.40;99.90
5457;DHT22;2751;49.802;9.944;2023-07-30T01:28:27;19.40;99.90
5457;DHT22;2751;49.802;9.944;2023-07-30T01:30:57;19.40;99.90
5457;DHT22;2751;49.802;9.944;2023-07-30T01:33:26;19.30;99.90
5457;DHT22;2751;49.802;9.944;2023-07-30T01:35:56;19.30;99.90
5457;DHT22;2751;49.802;9.944;2023-07-30T01:38:24;19.20;99.90
5457;DHT22;2751;49.802;9.944;2023-07-30T01:40:52;19.20;99.90
5457;DHT22;2751;49.802;9.944;2023-07-30T01:43:19;19.20;99.90
5457;DHT22;2751;49.802;9.944;2023-07-30T01:45:46;19.10;99.90
5457;DHT22;2751;49.802;9.944;2023-07-30T01:48:13;19.10;99.90
5457;DHT22;2751;49.802;9.944;2023-07-30T01:50:40;19.10;99.90
5457;DHT22;2751;49.802;9.944;2023-07-30T01:53:08;19.10;99.90
5457;DHT22;2751;49.802;9.944;2023-07-30T01:55:35;19.00;99.90
5457;DHT22;2751;49.802;9.944;2023-07-30T01:58:02;19.00;99.90
5457;DHT22;2751;49.802;9.944;2023-07-30T02:00:28;19.00;99.90
5457;DHT22;2751;49.802;9.944;2023-07-30T02:02:55;19.00;99.90
5457;DHT22;2751;49.802;9.944;2023-07-30T02:05:22;19.00;99.90
5457;DHT22;2751;49.802;9.944;2023-07-30T02:07:50;19.00;99.90
5457;DHT22;2751;49.802;9.944;2023-07-30T02:10:19;19.00;99.90
5457;DHT22;2751;49.802;9.944;2023-07-30T02:12:45;19.00;99.90
5457;DHT22;2751;49.802;9.944;2023-07-30T02:15:12;19.00;99.90
5457;DHT22;2751;49.802;9.944;2023-07-30T02:17:39;19.00;99.90
5457;DHT22;2751;49.802;9.944;2023-07-30T02:20:07;18.90;99.90
5457;DHT22;2751;49.802;9.944;2023-07-30T02:22:34;18.90;99.90
5457;DHT22;2751;49.802;9.944;2023-07-30T02:25:01;19.00;99.90
5457;DHT22;2751;49.802;9.944;2023-07-30T02:27:29;18.90;99.90
5457;DHT22;2751;49.802;9.944;2023-07-30T02:29:57;18.80;99.90
5457;DHT22;2751;49.802;9.944;2023-07-30T02:32:24;18.80;99.90
5457;DHT22;2751;49.802;9.944;2023-07-30T02:34:50;18.80;99.90
5457;DHT22;2751;49.802;9.944;2023-07-30T02:37:17;18.70;99.90
5457;DHT22;2751;49.802;9.944;2023-07-30T02:39:44;18.70;99.90
5457;DHT22;2751;49.802;9.944;2023-07-30T02:42:11;18.70;99.90
5457;DHT22;2751;49.802;9.944;2023-07-30T02:44:39;18.60;99.90
5457;DHT22;2751;49.802;9.944;2023-07-30T02:47:06;18.60;99.90
5457;DHT22;2751;49.802;9.944;2023-07-30T02:49:33;18.60;99.90
5457;DHT22;2751;49.802;9.944;2023-07-30T02:52:00;18.70;99.90
5457;DHT22;2751;49.802;9.944;2023-07-30T02:54:27;18.70;99.90
5457;DHT22;2751;49.802;9.944;2023-07-30T02:56:53;18.70;99.90
5457;DHT22;2751;49.802;9.944;2023-07-30T02:59:20;18.60;99.90
5457;DHT22;2751;49.802;9.944;2023-07-30T03:01:48;18.70;99.90
5457;DHT22;2751;49.802;9.944;2023-07-30T03:04:15;18.70;99.90
5457;DHT22;2751;49.802;9.944;2023-07-30T03:06:42;18.80;99.90
5457;DHT22;2751;49.802;9.944;2023-07-30T03:09:09;18.80;99.90
5457;DHT22;2751;49.802;9.944;2023-07-30T03:11:36;18.80;99.90
5457;DHT22;2751;49.802;9.944;2023-07-30T03:14:03;18.90;99.90
5457;DHT22;2751;49.802;9.944;2023-07-30T03:16:29;18.90;99.90
5457;DHT22;2751;49.802;9.944;2023-07-30T03:18:58;18.80;99.90
5457;DHT22;2751;49.802;9.944;2023-07-30T03:21:25;18.80;99.90
5457;DHT22;2751;49.802;9.944;2023-07-30T03:23:51;18.80;99.90
5457;DHT22;2751;49.802;9.944;2023-07-30T03:26:19;18.80;99.90
5457;DHT22;2751;49.802;9.944;2023-07-30T03:28:46;18.80;99.90
5457;DHT22;2751;49.802;9.944;2023-07-30T03:31:13;18.80;99.90
5457;DHT22;2751;49.802;9.944;2023-07-30T03:33:40;18.80;99.90
5457;DHT22;2751;49.802;9.944;2023-07-30T03:36:11;18.90;99.90
5457;DHT22;2751;49.802;9.944;2023-07-30T03:38:37;18.80;99.90
5457;DHT22;2751;49.802;9.944;2023-07-30T03:41:04;18.90;99.90
5457;DHT22;2751;49.802;9.944;2023-07-30T03:43:32;18.80;99.90
5457;DHT22;2751;49.802;9.944;2023-07-30T03:45:59;18.90;99.90
5457;DHT22;2751;49.802;9.944;2023-07-30T03:48:26;18.90;99.90
5457;DHT22;2751;49.802;9.944;2023-07-30T03:50:53;18.90;99.90
5457;DHT22;2751;49.802;9.944;2023-07-30T03:53:22;18.90;99.90
5457;DHT22;2751;49.802;9.944;2023-07-30T03:55:49;18.90;99.90
5457;DHT22;2751;49.802;9.944;2023-07-30T03:58:16;18.90;99.90
5457;DHT22;2751;49.802;9.944;2023-07-30T04:00:42;18.90;99.90
5457;DHT22;2751;49.802;9.944;2023-07-30T04:03:09;18.90;99.90
5457;DHT22;2751;49.802;9.944;2023-07-30T04:05:36;18.90;99.90
5457;DHT22;2751;49.802;9.944;2023-07-30T04:08:03;18.90;99.90
5457;DHT22;2751;49.802;9.944;2023-07-30T04:10:31;18.90;99.90
5457;DHT22;2751;49.802;9.944;2023-07-30T04:12:59;19.00;99.90
5457;DHT22;2751;49.802;9.944;2023-07-30T04:15:26;19.00;99.90
5457;DHT22;2751;49.802;9.944;2023-07-30T04:17:53;19.00;99.90
5457;DHT22;2751;49.802;9.944;2023-07-30T04:20:20;19.00;99.90
5457;DHT22;2751;49.802;9.944;2023-07-30T04:22:47;19.00;99.90
5457;DHT22;2751;49.802;9.944;2023-07-30T04:25:14;19.00;99.90
5457;DHT22;2751;49.802;9.944;2023-07-30T04:27:42;19.00;99.90
5457;DHT22;2751;49.802;9.944;2023-07-30T04:30:10;19.00;99.90
5457;DHT22;2751;49.802;9.944;2023-07-30T04:32:37;19.00;99.90
5457;DHT22;2751;49.802;9.944;2023-07-30T04:35:04;18.90;99.90
5457;DHT22;2751;49.802;9.944;2023-07-30T04:37:31;18.90;99.90
5457;DHT22;2751;49.802;9.944;2023-07-30T04:39:58;18.90;99.90
5457;DHT22;2751;49.802;9.944;2023-07-30T04:42:25;18.80;99.90
5457;DHT22;2751;49.802;9.944;2023-07-30T04:44:53;18.80;99.90
5457;DHT22;2751;49.802;9.944;2023-07-30T04:47:20;18.70;99.90
5457;DHT22;2751;49.802;9.944;2023-07-30T04:49:47;18.70;99.90
5457;DHT22;2751;49.802;9.944;2023-07-30T04:52:16;18.70;99.90
5457;DHT22;2751;49.802;9.944;2023-07-30T04:54:43;18.70;99.90
5457;DHT22;2751;49.802;9.944;2023-07-30T04:57:11;18.70;99.90
5457;DHT22;2751;49.802;9.944;2023-07-30T04:59:38;18.70;99.90
5457;DHT22;2751;49.802;9.944;2023-07-30T05:02:06;18.60;99.90
5457;DHT22;2751;49.802;9.944;2023-07-30T05:04:33;18.60;99.90
5457;DHT22;2751;49.802;9.944;2023-07-30T05:07:00;18.60;99.90
5457;DHT22;2751;49.802;9.944;2023-07-30T05:09:27;18.60;99.90
5457;DHT22;2751;49.802;9.944;2023-07-30T05:11:53;18.70;99.90
5457;DHT22;2751;49.802;9.944;2023-07-30T05:14:20;18.70;99.90
5457;DHT22;2751;49.802;9.944;2023-07-30T05:16:47;18.70;99.90
5457;DHT22;2751;49.802;9.944;2023-07-30T05:19:16;18.90;99.90
5457;DHT22;2751;49.802;9.944;2023-07-30T05:21:43;19.00;99.90
5457;DHT22;2751;49.802;9.944;2023-07-30T05:24:10;19.10;99.90
5457;DHT22;2751;49.802;9.944;2023-07-30T05:26:36;19.20;99.90
5457;DHT22;2751;49.802;9.944;2023-07-30T05:29:03;19.40;99.90
5457;DHT22;2751;49.802;9.944;2023-07-30T05:31:30;19.60;99.90
5457;DHT22;2751;49.802;9.944;2023-07-30T05:33:57;19.80;99.90
5457;DHT22;2751;49.802;9.944;2023-07-30T05:36:25;19.90;99.90
5457;DHT22;2751;49.802;9.944;2023-07-30T05:38:52;20.00;99.90
5457;DHT22;2751;49.802;9.944;2023-07-30T05:41:19;20.00;99.90
5457;DHT22;2751;49.802;9.944;2023-07-30T05:43:46;20.00;99.90
5457;DHT22;2751;49.802;9.944;2023-07-30T05:46:14;20.00;99.90
5457;DHT22;2751;49.802;9.944;2023-07-30T05:48:41;20.00;99.90
5457;DHT22;2751;49.802;9.944;2023-07-30T05:51:08;20.10;99.90
5457;DHT22;2751;49.802;9.944;2023-07-30T05:53:36;20.20;99.90
5457;DHT22;2751;49.802;9.944;2023-07-30T05:56:03;20.30;99.90
5457;DHT22;2751;49.802;9.944;2023-07-30T05:58:31;20.50;99.90
5457;DHT22;2751;49.802;9.944;2023-07-30T06:00:58;20.70;99.90
5457;DHT22;2751;49.802;9.944;2023-07-30T06:03:24;20.60;99.90
5457;DHT22;2751;49.802;9.944;2023-07-30T06:05:51;20.60;99.90
5457;DHT22;2751;49.802;9.944;2023-07-30T06:08:18;20.60;99.90
5457;DHT22;2751;49.802;9.944;2023-07-30T06:10:46;20.60;99.90
5457;DHT22;2751;49.802;9.944;2023-07-30T06:13:13;20.70;99.90
5457;DHT22;2751;49.802;9.944;2023-07-30T06:15:40;20.80;99.90
5457;DHT22;2751;49.802;9.944;2023-07-30T06:18:07;21.00;99.90
5457;DHT22;2751;49.802;9.944;2023-07-30T06:20:34;21.10;99.90
5457;DHT22;2751;49.802;9.944;2023-07-30T06:23:01;21.30;99.90
5457;DHT22;2751;49.802;9.944;2023-07-30T06:25:29;21.30;99.90
5457;DHT22;2751;49.802;9.944;2023-07-30T06:27:57;21.30;99.90
5457;DHT22;2751;49.802;9.944;2023-07-30T06:30:25;21.20;99.90
5457;DHT22;2751;49.802;9.944;2023-07-30T06:32:51;21.30;99.90
5457;DHT22;2751;49.802;9.944;2023-07-30T06:35:18;21.30;99.90
5457;DHT22;2751;49.802;9.944;2023-07-30T06:37:45;21.40;99.90
5457;DHT22;2751;49.802;9.944;2023-07-30T06:40:16;21.60;99.90
5457;DHT22;2751;49.802;9.944;2023-07-30T06:42:43;21.70;99.90
5457;DHT22;2751;49.802;9.944;2023-07-30T06:45:13;21.80;99.90
5457;DHT22;2751;49.802;9.944;2023-07-30T06:47:41;21.60;99.90
5457;DHT22;2751;49.802;9.944;2023-07-30T06:50:28;21.70;99.90
5457;DHT22;2751;49.802;9.944;2023-07-30T06:59:37;21.60;99.90
5457;DHT22;2751;49.802;9.944;2023-07-30T07:02:06;21.70;99.90
5457;DHT22;2751;49.802;9.944;2023-07-30T07:04:33;21.70;99.90
5457;DHT22;2751;49.802;9.944;2023-07-30T07:07:00;21.80;99.90
5457;DHT22;2751;49.802;9.944;2023-07-30T07:09:28;21.90;99.90
5457;DHT22;2751;49.802;9.944;2023-07-30T07:11:56;21.80;99.90
5457;DHT22;2751;49.802;9.944;2023-07-30T07:14:23;21.80;99.90
5457;DHT22;2751;49.802;9.944;2023-07-30T07:16:50;22.00;99.90
5457;DHT22;2751;49.802;9.944;2023-07-30T07:19:18;22.10;99.90
5457;DHT22;2751;49.802;9.944;2023-07-30T07:21:45;21.90;99.90
5457;DHT22;2751;49.802;9.944;2023-07-30T07:24:11;21.90;99.90
5457;DHT22;2751;49.802;9.944;2023-07-30T07:26:38;21.90;99.90
5457;DHT22;2751;49.802;9.944;2023-07-30T07:29:05;21.80;99.90
5457;DHT22;2751;49.802;9.944;2023-07-30T07:31:32;21.90;99.90
5457;DHT22;2751;49.802;9.944;2023-07-30T07:33:59;22.00;99.90
5457;DHT22;2751;49.802;9.944;2023-07-30T07:36:27;21.90;99.90
5457;DHT22;2751;49.802;9.944;2023-07-30T07:38:54;22.00;99.90
5457;DHT22;2751;49.802;9.944;2023-07-30T07:41:21;22.00;99.90
5457;DHT22;2751;49.802;9.944;2023-07-30T07:43:48;21.90;99.90
5457;DHT22;2751;49.802;9.944;2023-07-30T07:46:15;22.00;99.90
5457;DHT22;2751;49.802;9.944;2023-07-30T07:48:43;22.10;99.90
5457;DHT22;2751;49.802;9.944;2023-07-30T07:51:10;22.30;99.90
5457;DHT22;2751;49.802;9.944;2023-07-30T07:53:39;22.50;99.90
5457;DHT22;2751;49.802;9.944;2023-07-30T07:56:06;22.70;99.90
5457;DHT22;2751;49.802;9.944;2023-07-30T07:58:33;22.90;99.90
5457;DHT22;2751;49.802;9.944;2023-07-30T08:01:01;22.80;99.90
5457;DHT22;2751;49.802;9.944;2023-07-30T08:03:28;22.90;99.90
5457;DHT22;2751;49.802;9.944;2023-07-30T08:05:55;23.10;99.90
5457;DHT22;2751;49.802;9.944;2023-07-30T08:08:23;23.30;99.90
5457;DHT22;2751;49.802;9.944;2023-07-30T08:10:52;23.40;99.90
5457;DHT22;2751;49.802;9.944;2023-07-30T08:13:19;23.50;99.90
5457;DHT22;2751;49.802;9.944;2023-07-30T08:15:46;23.60;99.90
5457;DHT22;2751;49.802;9.944;2023-07-30T08:18:13;23.60;99.90
5457;DHT22;2751;49.802;9.944;2023-07-30T08:20:40;23.50;99.90
5457;DHT22;2751;49.802;9.944;2023-07-30T08:23:07;23.50;99.90
5457;DHT22;2751;49.802;9.944;2023-07-30T08:25:34;24.00;99.90
5457;DHT22;2751;49.802;9.944;2023-07-30T08:28:02;24.00;99.90
5457;DHT22;2751;49.802;9.944;2023-07-30T08:30:29;24.30;99.90
5457;DHT22;2751;49.802;9.944;2023-07-30T08:32:56;24.80;99.90
5457;DHT22;2751;49.802;9.944;2023-07-30T08:35:23;25.50;99.90
5457;DHT22;2751;49.802;9.944;2023-07-30T08:37:50;25.70;99.90
5457;DHT22;2751;49.802;9.944;2023-07-30T08:40:16;25.70;99.90
5457;DHT22;2751;49.802;9.944;2023-07-30T08:42:43;26.20;99.90
5457;DHT22;2751;49.802;9.944;2023-07-30T08:45:12;26.20;99.90
5457;DHT22;2751;49.802;9.944;2023-07-30T08:47:40;25.90;99.90
5457;DHT22;2751;49.802;9.944;2023-07-30T08:50:08;25.80;99.90
5457;DHT22;2751;49.802;9.944;2023-07-30T08:52:36;26.10;99.90
5457;DHT22;2751;49.802;9.944;2023-07-30T08:55:03;25.90;99.90
5457;DHT22;2751;49.802;9.944;2023-07-30T08:57:31;25.80;99.90
5457;DHT22;2751;49.802;9.944;2023-07-30T09:00:02;25.30;99.90
5457;DHT22;2751;49.802;9.944;2023-07-30T09:02:34;25.00;99.90
5457;DHT22;2751;49.802;9.944;2023-07-30T09:05:04;24.60;99.90
5457;DHT22;2751;49.802;9.944;2023-07-30T09:07:31;24.60;99.90
5457;DHT22;2751;49.802;9.944;2023-07-30T09:09:58;24.30;99.90
5457;DHT22;2751;49.802;9.944;2023-07-30T09:12:26;24.10;99.90
5457;DHT22;2751;49.802;9.944;2023-07-30T09:14:53;24.00;99.90
5457;DHT22;2751;49.802;9.944;2023-07-30T09:17:20;24.00;99.90
5457;DHT22;2751;49.802;9.944;2023-07-30T09:19:48;24.00;99.90
5457;DHT22;2751;49.802;9.944;2023-07-30T09:22:23;23.90;99.90
5457;DHT22;2751;49.802;9.944;2023-07-30T09:24:50;23.80;99.90
5457;DHT22;2751;49.802;9.944;2023-07-30T09:27:20;23.40;99.90
5457;DHT22;2751;49.802;9.944;2023-07-30T09:29:51;23.40;99.90
5457;DHT22;2751;49.802;9.944;2023-07-30T09:32:19;22.90;99.90
5457;DHT22;2751;49.802;9.944;2023-07-30T09:34:47;22.10;99.90
5457;DHT22;2751;49.802;9.944;2023-07-30T09:37:14;22.20;99.90
5457;DHT22;2751;49.802;9.944;2023-07-30T09:39:43;22.00;99.90
5457;DHT22;2751;49.802;9.944;2023-07-30T09:42:10;21.70;99.90
5457;DHT22;2751;49.802;9.944;2023-07-30T09:44:37;21.60;99.90
5457;DHT22;2751;49.802;9.944;2023-07-30T09:47:09;21.70;99.90
5457;DHT22;2751;49.802;9.944;2023-07-30T09:49:36;21.70;99.90
5457;DHT22;2751;49.802;9.944;2023-07-30T09:52:05;21.90;99.90
5457;DHT22;2751;49.802;9.944;2023-07-30T09:54:33;21.70;99.90
5457;DHT22;2751;49.802;9.944;2023-07-30T09:57:00;21.70;99.90
5457;DHT22;2751;49.802;9.944;2023-07-30T09:59:27;21.90;99.90
5457;DHT22;2751;49.802;9.944;2023-07-30T10:01:54;22.10;99.90
5457;DHT22;2751;49.802;9.944;2023-07-30T10:04:23;22.30;99.90
5457;DHT22;2751;49.802;9.944;2023-07-30T10:06:52;22.60;99.90
5457;DHT22;2751;49.802;9.944;2023-07-30T10:09:23;22.90;99.90
5457;DHT22;2751;49.802;9.944;2023-07-30T10:11:53;23.00;99.90
5457;DHT22;2751;49.802;9.944;2023-07-30T10:14:22;23.20;99.90
5457;DHT22;2751;49.802;9.944;2023-07-30T10:16:51;23.40;99.90
5457;DHT22;2751;49.802;9.944;2023-07-30T10:19:22;23.70;99.90
5457;DHT22;2751;49.802;9.944;2023-07-30T10:21:50;24.10;99.90
5457;DHT22;2751;49.802;9.944;2023-07-30T10:24:17;24.70;99.90
5457;DHT22;2751;49.802;9.944;2023-07-30T10:26:45;25.10;99.90
5457;DHT22;2751;49.802;9.944;2023-07-30T10:29:13;25.60;99.90
5457;DHT22;2751;49.802;9.944;2023-07-30T10:31:41;26.10;99.90
5457;DHT22;2751;49.802;9.944;2023-07-30T10:34:09;27.50;99.90
5457;DHT22;2751;49.802;9.944;2023-07-30T10:36:41;28.60;99.90
5457;DHT22;2751;49.802;9.944;2023-07-30T10:39:16;28.70;99.90
5457;DHT22;2751;49.802;9.944;2023-07-30T10:41:45;28.20;99.90
5457;DHT22;2751;49.802;9.944;2023-07-30T10:44:22;27.20;99.90
5457;DHT22;2751;49.802;9.944;2023-07-30T10:46:50;26.30;99.90
5457;DHT22;2751;49.802;9.944;2023-07-30T10:49:24;25.20;99.90
5457;DHT22;2751;49.802;9.944;2023-07-30T10:51:51;24.70;99.90
5457;DHT22;2751;49.802;9.944;2023-07-30T10:54:19;25.10;99.90
5457;DHT22;2751;49.802;9.944;2023-07-30T10:56:47;25.80;99.90
5457;DHT22;2751;49.802;9.944;2023-07-30T10:59:15;26.50;99.90
5457;DHT22;2751;49.802;9.944;2023-07-30T11:01:43;25.70;99.90
5457;DHT22;2751;49.802;9.944;2023-07-30T11:04:13;25.50;99.90
5457;DHT22;2751;49.802;9.944;2023-07-30T11:06:45;25.20;99.90
5457;DHT22;2751;49.802;9.944;2023-07-30T11:09:18;25.10;99.90
5457;DHT22;2751;49.802;9.944;2023-07-30T11:11:48;24.50;99.90
5457;DHT22;2751;49.802;9.944;2023-07-30T11:14:15;24.50;99.90
5457;DHT22;2751;49.802;9.944;2023-07-30T11:16:48;24.90;99.90
5457;DHT22;2751;49.802;9.944;2023-07-30T11:19:15;25.80;99.90
5457;DHT22;2751;49.802;9.944;2023-07-30T11:21:44;26.50;99.90
5457;DHT22;2751;49.802;9.944;2023-07-30T11:24:12;27.00;99.90
5457;DHT22;2751;49.802;9.944;2023-07-30T11:26:38;27.00;99.90
5457;DHT22;2751;49.802;9.944;2023-07-30T11:29:15;28.40;99.90
5457;DHT22;2751;49.802;9.944;2023-07-30T11:31:43;29.00;99.90
5457;DHT22;2751;49.802;9.944;2023-07-30T11:34:11;27.00;99.90
5457;DHT22;2751;49.802;9.944;2023-07-30T11:36:38;26.00;99.90
5457;DHT22;2751;49.802;9.944;2023-07-30T11:39:06;25.10;99.90
5457;DHT22;2751;49.802;9.944;2023-07-30T11:41:33;24.50;99.90
5457;DHT22;2751;49.802;9.944;2023-07-30T11:44:01;25.50;99.90
5457;DHT22;2751;49.802;9.944;2023-07-30T11:46:30;27.20;99.50
5457;DHT22;2751;49.802;9.944;2023-07-30T11:49:11;26.20;99.90
5457;DHT22;2751;49.802;9.944;2023-07-30T11:51:38;25.70;99.90
5457;DHT22;2751;49.802;9.944;2023-07-30T11:54:05;25.00;99.90
5457;DHT22;2751;49.802;9.944;2023-07-30T11:56:32;24.50;99.90
5457;DHT22;2751;49.802;9.944;2023-07-30T11:59:00;24.20;99.90
5457;DHT22;2751;49.802;9.944;2023-07-30T12:01:31;24.20;99.90
5457;DHT22;2751;49.802;9.944;2023-07-30T12:04:02;23.70;99.90
5457;DHT22;2751;49.802;9.944;2023-07-30T12:06:38;23.50;99.90
5457;DHT22;2751;49.802;9.944;2023-07-30T12:09:10;23.80;99.90
5457;DHT22;2751;49.802;9.944;2023-07-30T12:11:44;25.80;99.90
5457;DHT22;2751;49.802;9.944;2023-07-30T12:14:11;25.60;99.90
5457;DHT22;2751;49.802;9.944;2023-07-30T12:16:39;25.70;99.90
5457;DHT22;2751;49.802;9.944;2023-07-30T12:19:06;27.00;99.90
5457;DHT22;2751;49.802;9.944;2023-07-30T12:21:33;27.80;99.90
5457;DHT22;2751;49.802;9.944;2023-07-30T12:24:00;26.70;99.90
5457;DHT22;2751;49.802;9.944;2023-07-30T12:26:27;25.80;99.90
5457;DHT22;2751;49.802;9.944;2023-07-30T12:28:54;26.50;99.90
5457;DHT22;2751;49.802;9.944;2023-07-30T12:31:21;26.60;99.90
5457;DHT22;2751;49.802;9.944;2023-07-30T12:33:49;26.70;98.80
5457;DHT22;2751;49.802;9.944;2023-07-30T12:36:16;26.90;99.30
5457;DHT22;2751;49.802;9.944;2023-07-30T12:38:44;26.60;98.20
5457;DHT22;2751;49.802;9.944;2023-07-30T12:41:11;25.30;99.00
5457;DHT22;2751;49.802;9.944;2023-07-30T12:43:39;24.50;99.90
5457;DHT22;2751;49.802;9.944;2023-07-30T12:46:06;24.30;99.90
5457;DHT22;2751;49.802;9.944;2023-07-30T12:48:33;24.60;99.90
5457;DHT22;2751;49.802;9.944;2023-07-30T12:51:02;26.50;98.70
5457;DHT22;2751;49.802;9.944;2023-07-30T12:53:29;27.60;96.50
5457;DHT22;2751;49.802;9.944;2023-07-30T12:55:56;27.10;96.50
5457;DHT22;2751;49.802;9.944;2023-07-30T12:58:23;27.80;95.60
5457;DHT22;2751;49.802;9.944;2023-07-30T13:00:49;28.80;93.90
5457;DHT22;2751;49.802;9.944;2023-07-30T13:03:16;27.90;94.20
5457;DHT22;2751;49.802;9.944;2023-07-30T13:05:43;27.80;94.10
5457;DHT22;2751;49.802;9.944;2023-07-30T13:08:11;27.00;93.90
5457;DHT22;2751;49.802;9.944;2023-07-30T13:10:38;26.20;95.20
5457;DHT22;2751;49.802;9.944;2023-07-30T13:13:05;25.80;95.90
5457;DHT22;2751;49.802;9.944;2023-07-30T13:15:32;26.40;95.50
5457;DHT22;2751;49.802;9.944;2023-07-30T13:17:59;27.30;94.70
5457;DHT22;2751;49.802;9.944;2023-07-30T13:20:26;27.10;94.30
5457;DHT22;2751;49.802;9.944;2023-07-30T13:22:53;25.90;94.60
5457;DHT22;2751;49.802;9.944;2023-07-30T13:25:21;25.10;96.30
5457;DHT22;2751;49.802;9.944;2023-07-30T13:27:48;25.10;96.00
5457;DHT22;2751;49.802;9.944;2023-07-30T13:30:15;26.80;94.40
5457;DHT22;2751;49.802;9.944;2023-07-30T13:32:42;28.50;91.80
5457;DHT22;2751;49.802;9.944;2023-07-30T13:35:08;29.50;90.60
5457;DHT22;2751;49.802;9.944;2023-07-30T13:37:35;29.80;89.70
5457;DHT22;2751;49.802;9.944;2023-07-30T13:40:02;30.50;88.20
5457;DHT22;2751;49.802;9.944;2023-07-30T13:42:31;30.40;84.70
5457;DHT22;2751;49.802;9.944;2023-07-30T13:44:58;29.80;83.30
5457;DHT22;2751;49.802;9.944;2023-07-30T13:47:25;29.70;82.10
5457;DHT22;2751;49.802;9.944;2023-07-30T13:49:52;28.30;84.00
5457;DHT22;2751;49.802;9.944;2023-07-30T13:52:19;28.90;84.20
5457;DHT22;2751;49.802;9.944;2023-07-30T13:54:46;27.90;84.10
5457;DHT22;2751;49.802;9.944;2023-07-30T13:57:21;26.70;86.20
5457;DHT22;2751;49.802;9.944;2023-07-30T13:59:50;25.70;87.70
5457;DHT22;2751;49.802;9.944;2023-07-30T14:02:17;25.60;88.30
5457;DHT22;2751;49.802;9.944;2023-07-30T14:04:44;26.90;86.80
5457;DHT22;2751;49.802;9.944;2023-07-30T14:07:11;26.10;86.30
5457;DHT22;2751;49.802;9.944;2023-07-30T14:09:38;26.70;84.40
5457;DHT22;2751;49.802;9.944;2023-07-30T14:12:05;28.10;79.80
5457;DHT22;2751;49.802;9.944;2023-07-30T14:14:32;26.90;79.90
5457;DHT22;2751;49.802;9.944;2023-07-30T14:17:01;27.20;80.70
5457;DHT22;2751;49.802;9.944;2023-07-30T14:19:32;28.30;79.10
5457;DHT22;2751;49.802;9.944;2023-07-30T14:21:59;28.30;77.00
5457;DHT22;2751;49.802;9.944;2023-07-30T14:24:25;28.90;75.40
5457;DHT22;2751;49.802;9.944;2023-07-30T14:26:52;28.10;73.70
5457;DHT22;2751;49.802;9.944;2023-07-30T14:29:19;28.30;73.90
5457;DHT22;2751;49.802;9.944;2023-07-30T14:31:46;28.70;71.80
5457;DHT22;2751;49.802;9.944;2023-07-30T14:34:15;28.70;71.30
5457;DHT22;2751;49.802;9.944;2023-07-30T14:36:42;29.00;71.60
5457;DHT22;2751;49.802;9.944;2023-07-30T14:39:09;29.10;69.40
5457;DHT22;2751;49.802;9.944;2023-07-30T14:41:37;29.10;67.30
5457;DHT22;2751;49.802;9.944;2023-07-30T14:44:04;29.10;66.40
5457;DHT22;2751;49.802;9.944;2023-07-30T14:46:31;29.10;67.50
5457;DHT22;2751;49.802;9.944;2023-07-30T14:48:58;29.00;66.20
5457;DHT22;2751;49.802;9.944;2023-07-30T14:51:26;28.70;65.40
5457;DHT22;2751;49.802;9.944;2023-07-30T14:53:53;28.90;65.20
5457;DHT22;2751;49.802;9.944;2023-07-30T14:56:19;29.20;64.40
5457;DHT22;2751;49.802;9.944;2023-07-30T14:58:46;29.30;62.50
5457;DHT22;2751;49.802;9.944;2023-07-30T15:01:13;29.10;62.10
5457;DHT22;2751;49.802;9.944;2023-07-30T15:03:40;29.20;60.70
5457;DHT22;2751;49.802;9.944;2023-07-30T15:06:08;28.90;61.20
5457;DHT22;2751;49.802;9.944;2023-07-30T15:08:36;28.20;61.40
5457;DHT22;2751;49.802;9.944;2023-07-30T15:11:03;28.70;60.50
5457;DHT22;2751;49.802;9.944;2023-07-30T15:13:30;28.80;59.90
5457;DHT22;2751;49.802;9.944;2023-07-30T15:15:57;29.20;59.80
5457;DHT22;2751;49.802;9.944;2023-07-30T15:18:24;29.60;60.00
5457;DHT22;2751;49.802;9.944;2023-07-30T15:20:51;30.10;58.60
5457;DHT22;2751;49.802;9.944;2023-07-30T15:23:18;30.10;58.00
5457;DHT22;2751;49.802;9.944;2023-07-30T15:25:46;29.90;57.70
5457;DHT22;2751;49.802;9.944;2023-07-30T15:28:14;29.60;57.90
5457;DHT22;2751;49.802;9.944;2023-07-30T15:30:41;29.80;57.90
5457;DHT22;2751;49.802;9.944;2023-07-30T15:33:08;29.90;56.60
5457;DHT22;2751;49.802;9.944;2023-07-30T15:35:35;29.80;57.30
5457;DHT22;2751;49.802;9.944;2023-07-30T15:38:04;29.30;56.70
5457;DHT22;2751;49.802;9.944;2023-07-30T15:40:32;29.10;55.80
5457;DHT22;2751;49.802;9.944;2023-07-30T15:43:01;29.30;56.00
5457;DHT22;2751;49.802;9.944;2023-07-30T15:45:28;29.40;56.00
5457;DHT22;2751;49.802;9.944;2023-07-30T15:47:55;29.30;56.00
5457;DHT22;2751;49.802;9.944;2023-07-30T15:50:23;28.80;57.00
5457;DHT22;2751;49.802;9.944;2023-07-30T15:52:52;28.90;56.90
5457;DHT22;2751;49.802;9.944;2023-07-30T15:55:19;28.30;56.80
5457;DHT22;2751;49.802;9.944;2023-07-30T15:57:46;28.60;56.80
5457;DHT22;2751;49.802;9.944;2023-07-30T16:00:14;28.70;56.50
5457;DHT22;2751;49.802;9.944;2023-07-30T16:02:41;28.60;56.80
5457;DHT22;2751;49.802;9.944;2023-07-30T16:05:09;29.10;56.70
5457;DHT22;2751;49.802;9.944;2023-07-30T16:07:36;28.60;56.00
5457;DHT22;2751;49.802;9.944;2023-07-30T16:10:04;28.50;56.20
5457;DHT22;2751;49.802;9.944;2023-07-30T16:12:31;28.90;55.80